Time;durP1;ratioP1;P1;durP2;ratioP2;P2;SDS_P1;SDS_P2;PMS_P1;PMS_P2;Temp;Humidity;BMP_temperature;BMP_pressure;BME280_temperature;BME280_humidity;BME280_pressure;Samples;Min_cycle;Max_cycle;Signal;HPM_P1;HPM_P2
2024/03/12 00:01:22;;;;;;;6.03;3.42;;;;;;;;;;4987086;28;20096;-74
2024/03/12 00:03:48;;;;;;;10.23;5.20;;;;;;;;;;4989837;28;20187;-74
2024/03/12 00:06:13;;;;;;;10.20;5.53;;;;;;;;;;4994482;28;20026;-74
2024/03/12 00:08:39;;;;;;;8.07;4.65;;;;;;;;;;4990831;28;20037;-74
2024/03/12 00:11:04;;;;;;;7.05;4.63;;;;;;;;;;4990830;28;20109;-74
2024/03/12 00:13:30;;;;;;;12.20;6.05;;;;;;;;;;4990541;28;20118;-74
2024/03/12 00:15:55;;;;;;;9.13;6.38;;;;;;;;;;4992742;28;20042;-74
2024/03/12 00:18:25;;;;;;;9.50;5.95;;;;;;;;;;4993108;28;20480;-74
2024/03/12 00:20:51;;;;;;;11.32;6.18;;;;;;;;;;4988000;28;20121;-74
2024/03/12 00:23:16;;;;;;;8.63;4.95;;;;;;;;;;4990197;28;20040;-74
2024/03/12 00:25:42;;;;;;;10.13;5.00;;;;;;;;;;4993555;28;20026;-74
2024/03/12 00:28:09;;;;;;;10.35;5.05;;;;;;;;;;4991033;28;20053;-74
2024/03/12 00:30:34;;;;;;;8.90;4.95;;;;;;;;;;4990568;28;20104;-74
2024/03/12 00:33:00;;;;;;;7.10;3.63;;;;;;;;;;4989941;28;20456;-74
2024/03/12 00:35:29;;;;;;;8.20;3.47;;;;;;;;;;4990703;28;20038;-74
2024/03/12 00:37:56;;;;;;;6.10;3.28;;;;;;;;;;4991692;28;20038;-74
2024/03/12 00:40:22;;;;;;;6.22;3.05;;;;;;;;;;4990533;28;20030;-74
2024/03/12 00:42:48;;;;;;;5.57;3.35;;;;;;;;;;4990037;28;20037;-74
2024/03/12 00:45:13;;;;;;;7.53;3.72;;;;;;;;;;4991024;28;20153;-74
2024/03/12 00:47:40;;;;;;;5.25;2.63;;;;;;;;;;4992989;28;20026;-74
2024/03/12 00:50:07;;;;;;;7.72;4.10;;;;;;;;;;4990637;28;20030;-74
2024/03/12 00:52:32;;;;;;;7.93;4.10;;;;;;;;;;4987131;28;20030;-74
2024/03/12 00:54:58;;;;;;;6.38;2.95;;;;;;;;;;4990290;28;20491;-74
2024/03/12 00:57:26;;;;;;;6.68;4.00;;;;;;;;;;4993963;28;20050;-74
2024/03/12 00:59:52;;;;;;;7.00;3.88;;;;;;;;;;4988855;28;20121;-74
2024/03/12 01:02:19;;;;;;;8.88;5.22;;;;;;;;;;4988583;28;20161;-74
2024/03/12 01:04:45;;;;;;;7.47;4.82;;;;;;;;;;4990066;28;20029;-74
2024/03/12 01:07:10;;;;;;;7.55;4.32;;;;;;;;;;4995119;28;20038;-74
2024/03/12 01:09:39;;;;;;;8.55;5.07;;;;;;;;;;4990356;28;20154;-74
2024/03/12 01:12:09;;;;;;;9.57;5.10;;;;;;;;;;4987732;28;20403;-74
2024/03/12 01:14:35;;;;;;;12.45;6.97;;;;;;;;;;4990023;28;20027;-74
2024/03/12 01:17:00;;;;;;;10.00;6.40;;;;;;;;;;4990461;28;20030;-74
2024/03/12 01:19:26;;;;;;;12.27;6.63;;;;;;;;;;4991765;28;20038;-74
2024/03/12 01:21:51;;;;;;;15.15;9.43;;;;;;;;;;4989417;28;20034;-74
2024/03/12 01:24:17;;;;;;;17.45;10.38;;;;;;;;;;4989718;28;20038;-74
2024/03/12 01:26:42;;;;;;;16.05;9.13;;;;;;;;;;4993392;28;20061;-74
2024/03/12 01:29:07;;;;;;;16.08;9.95;;;;;;;;;;4990150;28;20038;-74
2024/03/12 01:31:32;;;;;;;13.68;8.85;;;;;;;;;;4989515;28;20034;-74
2024/03/12 01:33:58;;;;;;;15.95;8.65;;;;;;;;;;4989340;28;20038;-74
2024/03/12 01:36:34;;;;;;;16.45;8.27;;;;;;;;;;4997430;28;20080;-74
2024/03/12 01:39:03;;;;;;;13.55;8.40;;;;;;;;;;4991372;28;20167;-74
2024/03/12 01:41:31;;;;;;;12.98;8.15;;;;;;;;;;4993003;28;20030;-74
2024/03/12 01:44:02;;;;;;;16.05;8.73;;;;;;;;;;4992856;28;20030;-74
2024/03/12 01:46:31;;;;;;;16.98;10.02;;;;;;;;;;4995444;28;20041;-74
2024/03/12 01:48:58;;;;;;;15.13;9.38;;;;;;;;;;4993264;28;20121;-74
2024/03/12 01:51:24;;;;;;;14.88;8.45;;;;;;;;;;4996899;28;20033;-74
2024/03/12 01:53:49;;;;;;;14.05;7.80;;;;;;;;;;4993093;28;20084;-74
2024/03/12 01:56:14;;;;;;;12.85;8.30;;;;;;;;;;4994118;28;20037;-74
2024/03/12 01:58:40;;;;;;;15.27;8.30;;;;;;;;;;4993184;28;20027;-74
2024/03/12 02:01:05;;;;;;;13.20;7.93;;;;;;;;;;4993039;28;20026;-74
2024/03/12 02:03:33;;;;;;;12.23;7.45;;;;;;;;;;4992719;28;20034;-74
2024/03/12 02:05:59;;;;;;;13.27;7.82;;;;;;;;;;4993441;28;20041;-74
2024/03/12 02:08:24;;;;;;;13.27;8.48;;;;;;;;;;4995242;28;20030;-74
2024/03/12 02:10:50;;;;;;;15.48;7.60;;;;;;;;;;4992675;28;20117;-75
2024/03/12 02:13:15;;;;;;;15.40;8.70;;;;;;;;;;4988194;28;20030;-74
2024/03/12 02:15:41;;;;;;;14.10;8.85;;;;;;;;;;4994638;28;20048;-74
2024/03/12 02:18:09;;;;;;;17.70;10.50;;;;;;;;;;4995970;28;20073;-74
2024/03/12 02:20:34;;;;;;;17.27;9.95;;;;;;;;;;4992723;28;20117;-74
2024/03/12 02:22:59;;;;;;;17.35;10.57;;;;;;;;;;4992163;28;20118;-74
2024/03/12 02:25:25;;;;;;;13.65;8.30;;;;;;;;;;4993113;28;20035;-74
2024/03/12 02:27:50;;;;;;;13.20;7.45;;;;;;;;;;4992762;28;20038;-74
2024/03/12 02:30:16;;;;;;;12.77;7.15;;;;;;;;;;4992504;28;20031;-74
2024/03/12 02:32:41;;;;;;;17.70;9.50;;;;;;;;;;4992094;28;20104;-75
2024/03/12 02:35:11;;;;;;;13.13;7.93;;;;;;;;;;4992410;28;20102;-74
2024/03/12 02:37:38;;;;;;;12.77;8.07;;;;;;;;;;4993816;28;20030;-74
2024/03/12 02:40:05;;;;;;;16.42;9.20;;;;;;;;;;4992106;28;20069;-74
2024/03/12 02:42:30;;;;;;;14.70;9.43;;;;;;;;;;4992003;28;20517;-74
2024/03/12 02:44:56;;;;;;;15.82;10.18;;;;;;;;;;4990623;28;20109;-74
2024/03/12 02:47:21;;;;;;;15.57;9.65;;;;;;;;;;4994411;28;20026;-74
2024/03/12 02:49:47;;;;;;;16.08;10.35;;;;;;;;;;4991980;28;20118;-74
2024/03/12 02:52:12;;;;;;;15.07;9.07;;;;;;;;;;4991790;28;20035;-74
2024/03/12 02:54:38;;;;;;;15.60;9.52;;;;;;;;;;4989728;28;20030;-74
2024/03/12 02:57:03;;;;;;;16.33;9.70;;;;;;;;;;4995993;28;20077;-74
2024/03/12 02:59:30;;;;;;;12.63;8.13;;;;;;;;;;4991873;28;20061;-74
2024/03/12 03:01:55;;;;;;;12.73;7.65;;;;;;;;;;4993821;28;20038;-74
2024/03/12 03:04:21;;;;;;;11.35;6.38;;;;;;;;;;4991879;28;20026;-74
2024/03/12 03:06:50;;;;;;;10.82;7.38;;;;;;;;;;4993872;28;20034;-74
2024/03/12 03:09:15;;;;;;;14.70;7.75;;;;;;;;;;4991496;28;20031;-74
2024/03/12 03:11:40;;;;;;;10.85;6.85;;;;;;;;;;4994940;28;20044;-74
2024/03/12 03:14:05;;;;;;;13.13;7.32;;;;;;;;;;4991682;28;20034;-74
2024/03/12 03:16:33;;;;;;;13.32;6.90;;;;;;;;;;4991601;28;20165;-74
2024/03/12 03:18:58;;;;;;;10.45;7.05;;;;;;;;;;4991593;28;20058;-74
2024/03/12 03:21:24;;;;;;;11.98;7.13;;;;;;;;;;4991604;28;20090;-74
2024/03/12 03:23:49;;;;;;;12.73;7.50;;;;;;;;;;4989755;28;20030;-74
2024/03/12 03:26:14;;;;;;;10.85;6.68;;;;;;;;;;4992825;28;20027;-74
2024/03/12 03:28:39;;;;;;;11.95;6.60;;;;;;;;;;4992301;28;20057;-74
2024/03/12 03:31:05;;;;;;;13.45;7.13;;;;;;;;;;4991417;28;20030;-74
2024/03/12 03:33:31;;;;;;;13.02;6.97;;;;;;;;;;4991032;28;20404;-74
2024/03/12 03:35:56;;;;;;;9.68;5.80;;;;;;;;;;4992663;28;20038;-74
2024/03/12 03:38:23;;;;;;;11.55;7.00;;;;;;;;;;4994110;28;20061;-74
2024/03/12 03:40:48;;;;;;;11.50;6.95;;;;;;;;;;4991077;28;20583;-74
2024/03/12 03:43:13;;;;;;;13.02;7.55;;;;;;;;;;4990948;28;20117;-74
2024/03/12 03:45:38;;;;;;;12.80;7.25;;;;;;;;;;4992359;28;20061;-74
2024/03/12 03:48:04;;;;;;;12.73;7.30;;;;;;;;;;4991228;28;20494;-74
2024/03/12 03:50:29;;;;;;;11.88;8.13;;;;;;;;;;4991144;28;20034;-74
2024/03/12 03:52:54;;;;;;;13.32;8.32;;;;;;;;;;4990475;28;20096;-74
2024/03/12 03:55:23;;;;;;;11.43;7.47;;;;;;;;;;4990846;28;20022;-74
2024/03/12 03:57:51;;;;;;;14.95;8.57;;;;;;;;;;4991675;28;20069;-74
2024/03/12 04:00:17;;;;;;;11.73;7.88;;;;;;;;;;4990792;28;20550;-75
2024/03/12 04:02:44;;;;;;;14.38;7.88;;;;;;;;;;4992007;28;20035;-75
2024/03/12 04:05:10;;;;;;;14.95;8.18;;;;;;;;;;4990852;28;20036;-74
2024/03/12 04:07:35;;;;;;;12.10;7.03;;;;;;;;;;4992841;28;20387;-74
2024/03/12 04:10:00;;;;;;;13.55;7.93;;;;;;;;;;4990587;28;20035;-74
2024/03/12 04:12:26;;;;;;;13.57;7.70;;;;;;;;;;4988804;28;20038;-75
2024/03/12 04:14:51;;;;;;;11.38;7.28;;;;;;;;;;4990421;28;20041;-74
2024/03/12 04:17:19;;;;;;;13.98;8.52;;;;;;;;;;4994154;28;20030;-74
2024/03/12 04:19:47;;;;;;;14.32;8.15;;;;;;;;;;4990680;28;20398;-74
2024/03/12 04:22:13;;;;;;;12.13;8.10;;;;;;;;;;4990096;28;20062;-74
2024/03/12 04:24:38;;;;;;;12.95;7.63;;;;;;;;;;4990556;28;20120;-74
2024/03/12 04:27:03;;;;;;;10.63;7.10;;;;;;;;;;4991432;28;20022;-74
2024/03/12 04:29:29;;;;;;;11.80;8.10;;;;;;;;;;4990662;28;20474;-74
2024/03/12 04:31:55;;;;;;;16.38;7.75;;;;;;;;;;4983570;28;20040;-74
2024/03/12 04:34:20;;;;;;;11.48;7.30;;;;;;;;;;4990399;28;20040;-74
2024/03/12 04:36:46;;;;;;;12.00;7.18;;;;;;;;;;4991348;28;20035;-74
2024/03/12 04:39:53;;;;;;;11.55;8.23;;;;;;;;;;4990768;28;20491;-74
2024/03/12 04:42:02;;;;;;;14.48;8.70;;;;;;;;;;4980799;28;20129;-74
2024/03/12 04:44:27;;;;;;;11.20;7.43;;;;;;;;;;4990269;28;20030;-74
2024/03/12 04:46:52;;;;;;;11.57;6.72;;;;;;;;;;4992685;28;20092;-74
2024/03/12 04:49:18;;;;;;;11.65;7.90;;;;;;;;;;4990483;28;20491;-74
2024/03/12 04:51:44;;;;;;;13.07;7.05;;;;;;;;;;4989650;28;20046;-75
2024/03/12 04:54:09;;;;;;;11.85;7.50;;;;;;;;;;4990272;28;20541;-75
2024/03/12 04:56:36;;;;;;;11.13;7.32;;;;;;;;;;4995514;28;20049;-75
2024/03/12 04:59:01;;;;;;;13.63;7.45;;;;;;;;;;4990927;28;20046;-74
2024/03/12 05:01:26;;;;;;;12.38;7.35;;;;;;;;;;4990210;28;20038;-75
2024/03/12 05:03:51;;;;;;;12.50;7.35;;;;;;;;;;4989762;28;20093;-76
2024/03/12 05:06:19;;;;;;;15.35;8.80;;;;;;;;;;4990838;28;20023;-75
2024/03/12 05:08:44;;;;;;;17.02;7.97;;;;;;;;;;4991854;28;20022;-75
2024/03/12 05:11:09;;;;;;;11.65;7.57;;;;;;;;;;4992287;28;20392;-75
2024/03/12 05:13:34;;;;;;;12.48;7.20;;;;;;;;;;4992448;28;20077;-75
2024/03/12 05:16:00;;;;;;;11.98;8.15;;;;;;;;;;4996704;28;20076;-75
2024/03/12 05:18:25;;;;;;;12.30;6.90;;;;;;;;;;4994821;28;20034;-75
2024/03/12 05:20:53;;;;;;;13.05;8.55;;;;;;;;;;4992982;28;20541;-74
2024/03/12 05:23:18;;;;;;;12.38;8.63;;;;;;;;;;5006260;28;20040;-74
2024/03/12 05:25:46;;;;;;;11.05;8.50;;;;;;;;;;4993503;28;20018;-74
2024/03/12 05:28:12;;;;;;;12.25;7.57;;;;;;;;;;4993266;28;20022;-74
2024/03/12 05:30:37;;;;;;;13.63;8.45;;;;;;;;;;4993493;28;20022;-74
2024/03/12 05:33:04;;;;;;;23.83;15.90;;;;;;;;;;4992799;28;20414;-75
2024/03/12 05:35:31;;;;;;;12.10;8.38;;;;;;;;;;4990682;28;20030;-75
2024/03/12 05:38:03;;;;;;;11.13;7.43;;;;;;;;;;4993652;28;20442;-74
2024/03/12 05:40:46;;;;;;;9.90;7.20;;;;;;;;;;4992133;28;20498;-74
2024/03/12 05:48:53;;;;;;;9.50;7.03;;;;;;;;;;4942415;28;20087;-74
2024/03/12 05:51:18;;;;;;;12.13;7.85;;;;;;;;;;4993020;28;20491;-74
2024/03/12 05:53:43;;;;;;;9.38;6.68;;;;;;;;;;4992664;28;20104;-74
2024/03/12 05:56:09;;;;;;;10.05;7.80;;;;;;;;;;4991993;28;20065;-74
2024/03/12 05:58:35;;;;;;;9.50;6.60;;;;;;;;;;4992932;28;20057;-74
2024/03/12 06:01:00;;;;;;;13.88;9.10;;;;;;;;;;4992827;28;20394;-75
2024/03/12 06:03:25;;;;;;;15.60;9.25;;;;;;;;;;4992586;28;20038;-75
2024/03/12 06:05:51;;;;;;;12.07;6.95;;;;;;;;;;4993329;28;20037;-75
2024/03/12 06:08:16;;;;;;;12.20;6.70;;;;;;;;;;4993481;28;20027;-75
2024/03/12 06:10:41;;;;;;;12.80;7.18;;;;;;;;;;4989461;28;20125;-75
2024/03/12 06:13:06;;;;;;;11.70;7.22;;;;;;;;;;4991202;28;20037;-74
2024/03/12 06:15:32;;;;;;;11.68;8.25;;;;;;;;;;4991776;28;20034;-74
2024/03/12 06:17:57;;;;;;;11.32;7.53;;;;;;;;;;4993407;28;20414;-74
2024/03/12 06:20:22;;;;;;;11.48;7.53;;;;;;;;;;4991776;28;20396;-75
2024/03/12 06:22:47;;;;;;;10.82;6.78;;;;;;;;;;4990956;28;20658;-75
2024/03/12 06:25:13;;;;;;;10.43;7.50;;;;;;;;;;4991951;28;20436;-75
2024/03/12 06:27:38;;;;;;;10.45;7.03;;;;;;;;;;4996203;28;20559;-74
2024/03/12 06:30:03;;;;;;;10.15;7.88;;;;;;;;;;4992355;28;20042;-75
2024/03/12 06:32:31;;;;;;;8.75;6.40;;;;;;;;;;4989971;28;20136;-74
2024/03/12 06:34:56;;;;;;;9.18;7.10;;;;;;;;;;4990710;28;20066;-75
2024/03/12 06:37:23;;;;;;;9.65;6.55;;;;;;;;;;4994784;28;20030;-75
2024/03/12 06:39:48;;;;;;;9.15;5.82;;;;;;;;;;4992089;28;20542;-75
2024/03/12 06:42:13;;;;;;;10.00;6.57;;;;;;;;;;4991911;28;20038;-74
2024/03/12 06:44:42;;;;;;;13.20;6.85;;;;;;;;;;4992222;28;20054;-74
2024/03/12 06:47:09;;;;;;;23.70;13.30;;;;;;;;;;4993348;28;20019;-74
2024/03/12 06:49:35;;;;;;;12.93;8.18;;;;;;;;;;4990887;28;20495;-74
2024/03/12 06:52:00;;;;;;;10.18;7.20;;;;;;;;;;4991390;28;20161;-75
2024/03/12 06:54:26;;;;;;;10.30;6.57;;;;;;;;;;4991967;28;20085;-75
2024/03/12 06:56:53;;;;;;;9.77;6.95;;;;;;;;;;4992733;28;20145;-75
2024/03/12 06:59:18;;;;;;;12.55;7.13;;;;;;;;;;4992091;28;20046;-74
2024/03/12 07:01:45;;;;;;;11.65;7.68;;;;;;;;;;4991686;28;20115;-75
2024/03/12 07:04:10;;;;;;;9.13;6.40;;;;;;;;;;4990649;28;20026;-75
2024/03/12 07:06:37;;;;;;;11.00;7.57;;;;;;;;;;5011570;28;20398;-75
2024/03/12 07:09:03;;;;;;;12.13;7.88;;;;;;;;;;4991775;28;20040;-74
2024/03/12 07:11:29;;;;;;;14.25;8.10;;;;;;;;;;4992989;28;20026;-75
2024/03/12 07:14:02;;;;;;;11.73;7.82;;;;;;;;;;4991197;28;20096;-75
2024/03/12 07:16:27;;;;;;;14.00;9.48;;;;;;;;;;4988478;28;20062;-74
2024/03/12 07:18:54;;;;;;;12.18;8.45;;;;;;;;;;4991094;28;20066;-75
2024/03/12 07:21:20;;;;;;;11.32;6.88;;;;;;;;;;4991452;28;20038;-74
2024/03/12 07:23:45;;;;;;;12.93;8.13;;;;;;;;;;4990756;28;20520;-75
2024/03/12 07:26:10;;;;;;;11.35;7.53;;;;;;;;;;4990375;28;20034;-75
2024/03/12 07:28:35;;;;;;;13.75;8.05;;;;;;;;;;4993435;28;20026;-75
2024/03/12 07:31:02;;;;;;;14.32;7.07;;;;;;;;;;4991285;28;20085;-75
2024/03/12 07:33:29;;;;;;;11.32;7.07;;;;;;;;;;4990606;28;20084;-75
2024/03/12 07:35:54;;;;;;;13.65;7.53;;;;;;;;;;4990780;28;20034;-75
2024/03/12 07:38:19;;;;;;;9.95;6.47;;;;;;;;;;4997277;28;20060;-75
2024/03/12 07:40:45;;;;;;;13.00;7.63;;;;;;;;;;4990481;28;20030;-75
2024/03/12 07:43:11;;;;;;;11.43;8.18;;;;;;;;;;4989074;28;20030;-75
2024/03/12 07:45:42;;;;;;;14.55;7.97;;;;;;;;;;4991015;28;20061;-75
2024/03/12 07:48:07;;;;;;;16.83;7.63;;;;;;;;;;4997610;28;20051;-75
2024/03/12 07:50:33;;;;;;;11.35;7.93;;;;;;;;;;4991066;28;20022;-75
2024/03/12 07:52:58;;;;;;;14.55;9.15;;;;;;;;;;4990420;28;20041;-75
2024/03/12 07:55:25;;;;;;;13.60;8.40;;;;;;;;;;4990572;28;20038;-74
2024/03/12 07:57:50;;;;;;;14.55;10.93;;;;;;;;;;4995466;28;20030;-75
2024/03/12 08:00:16;;;;;;;16.10;7.70;;;;;;;;;;5004516;28;20037;-75
2024/03/12 08:02:41;;;;;;;9.85;7.28;;;;;;;;;;4990541;28;20034;-75
2024/03/12 08:05:07;;;;;;;11.95;8.25;;;;;;;;;;4988330;28;20034;-75
2024/03/12 08:07:33;;;;;;;11.65;7.55;;;;;;;;;;4993492;28;20038;-75
2024/03/12 08:09:59;;;;;;;13.30;7.95;;;;;;;;;;4987344;28;20026;-75
2024/03/12 08:12:24;;;;;;;13.73;8.35;;;;;;;;;;4989906;28;20458;-74
2024/03/12 08:14:49;;;;;;;17.75;10.63;;;;;;;;;;4990053;28;20041;-75
2024/03/12 08:17:14;;;;;;;15.18;9.57;;;;;;;;;;4995304;28;20018;-75
2024/03/12 08:19:42;;;;;;;11.77;6.93;;;;;;;;;;4991367;28;20527;-75
2024/03/12 08:22:08;;;;;;;15.15;9.40;;;;;;;;;;4990031;28;20030;-75
2024/03/12 08:24:34;;;;;;;12.82;7.38;;;;;;;;;;4990563;28;20046;-75
2024/03/12 08:26:59;;;;;;;10.50;6.32;;;;;;;;;;4994195;28;20061;-75
2024/03/12 08:29:24;;;;;;;11.18;7.07;;;;;;;;;;4992459;28;20030;-75
2024/03/12 08:31:49;;;;;;;9.45;6.70;;;;;;;;;;4988782;28;20041;-75
2024/03/12 08:34:17;;;;;;;8.50;6.28;;;;;;;;;;4990478;28;20057;-75
2024/03/12 08:36:42;;;;;;;9.85;6.13;;;;;;;;;;4994339;28;20037;-75
2024/03/12 08:39:11;;;;;;;10.23;7.22;;;;;;;;;;4991203;28;20030;-75
2024/03/12 08:41:36;;;;;;;15.70;10.13;;;;;;;;;;4988868;28;20027;-75
2024/03/12 08:44:01;;;;;;;8.70;6.40;;;;;;;;;;4990889;28;20073;-75
2024/03/12 08:46:28;;;;;;;7.90;5.90;;;;;;;;;;4996253;28;20124;-75
2024/03/12 08:48:53;;;;;;;8.40;5.63;;;;;;;;;;5002831;28;20069;-75
2024/03/12 08:51:18;;;;;;;8.35;6.15;;;;;;;;;;4994270;28;20071;-75
2024/03/12 08:53:44;;;;;;;9.18;6.18;;;;;;;;;;4994083;28;20034;-75
2024/03/12 08:56:09;;;;;;;8.05;5.80;;;;;;;;;;4994465;28;20034;-75
2024/03/12 08:58:34;;;;;;;9.15;6.35;;;;;;;;;;4998199;28;20030;-75
2024/03/12 09:01:00;;;;;;;8.15;5.57;;;;;;;;;;4996873;28;20030;-75
2024/03/12 09:03:26;;;;;;;7.20;5.22;;;;;;;;;;4993376;28;20033;-75
2024/03/12 09:05:51;;;;;;;11.45;8.27;;;;;;;;;;4993698;28;20037;-75
2024/03/12 09:08:17;;;;;;;14.25;9.48;;;;;;;;;;5000689;28;20033;-75
2024/03/12 09:10:43;;;;;;;8.63;4.93;;;;;;;;;;4996516;28;20030;-75
2024/03/12 09:13:08;;;;;;;7.95;5.28;;;;;;;;;;4992530;28;20117;-75
2024/03/12 09:15:34;;;;;;;8.20;5.68;;;;;;;;;;4993690;28;20089;-75
2024/03/12 09:18:04;;;;;;;8.30;5.15;;;;;;;;;;4998446;28;20089;-75
2024/03/12 09:20:29;;;;;;;9.55;6.57;;;;;;;;;;4987158;28;20057;-75
2024/03/12 09:22:55;;;;;;;13.60;8.55;;;;;;;;;;4993114;28;20117;-75
2024/03/12 09:25:23;;;;;;;7.93;4.82;;;;;;;;;;4993716;28;20018;-75
2024/03/12 09:27:48;;;;;;;7.70;4.35;;;;;;;;;;4996032;28;20055;-75
2024/03/12 09:30:16;;;;;;;7.75;4.47;;;;;;;;;;4992592;28;20085;-75
2024/03/12 09:32:42;;;;;;;6.47;4.40;;;;;;;;;;4996533;28;20691;-75
2024/03/12 09:35:07;;;;;;;8.23;4.00;;;;;;;;;;4997026;28;20049;-75
2024/03/12 09:37:35;;;;;;;7.15;4.57;;;;;;;;;;4998006;28;20029;-74
2024/03/12 09:40:01;;;;;;;7.65;4.45;;;;;;;;;;4994399;28;20035;-75
2024/03/12 09:42:27;;;;;;;7.20;4.68;;;;;;;;;;4992993;28;20533;-75
2024/03/12 09:44:53;;;;;;;8.30;4.63;;;;;;;;;;4993173;28;20069;-75
2024/03/12 09:47:20;;;;;;;6.20;4.28;;;;;;;;;;4998310;28;20057;-74
2024/03/12 09:49:45;;;;;;;7.47;4.40;;;;;;;;;;4994564;28;20030;-75
2024/03/12 09:52:11;;;;;;;7.95;4.70;;;;;;;;;;4992809;28;20061;-75
2024/03/12 09:54:36;;;;;;;6.40;4.68;;;;;;;;;;4993135;28;20110;-75
2024/03/12 09:57:02;;;;;;;7.18;4.05;;;;;;;;;;4996164;28;20125;-74
2024/03/12 09:59:28;;;;;;;6.80;4.10;;;;;;;;;;4993856;28;20819;-75
2024/03/12 10:01:53;;;;;;;7.70;4.93;;;;;;;;;;4992481;28;20169;-75
2024/03/12 10:04:19;;;;;;;6.57;4.28;;;;;;;;;;4993006;28;20031;-74
2024/03/12 10:06:44;;;;;;;6.38;4.65;;;;;;;;;;4993854;28;20030;-75
2024/03/12 10:09:15;;;;;;;7.65;4.63;;;;;;;;;;4994587;28;20045;-75
2024/03/12 10:11:41;;;;;;;6.82;3.72;;;;;;;;;;4988376;28;20030;-75
2024/03/12 10:14:09;;;;;;;7.43;4.45;;;;;;;;;;4992452;28;20034;-75
2024/03/12 10:16:34;;;;;;;5.88;3.92;;;;;;;;;;4994213;28;20093;-75
2024/03/12 10:19:08;;;;;;;6.20;3.85;;;;;;;;;;4995245;28;20499;-75
2024/03/12 10:21:34;;;;;;;5.65;3.63;;;;;;;;;;4992308;28;20042;-75
2024/03/12 10:24:17;;;;;;;6.28;3.58;;;;;;;;;;4992324;28;20034;-75
2024/03/12 10:26:45;;;;;;;7.50;3.70;;;;;;;;;;4992406;28;20627;-75
2024/03/12 10:29:12;;;;;;;7.15;4.45;;;;;;;;;;4994728;28;20104;-75
2024/03/12 10:31:40;;;;;;;6.05;4.30;;;;;;;;;;4990936;28;20500;-75
2024/03/12 10:34:13;;;;;;;5.60;3.58;;;;;;;;;;4990949;28;20037;-74
2024/03/12 10:36:42;;;;;;;7.38;4.13;;;;;;;;;;4995435;28;20030;-75
2024/03/12 10:39:12;;;;;;;6.75;3.95;;;;;;;;;;4993272;28;20118;-74
2024/03/12 10:41:38;;;;;;;7.38;3.70;;;;;;;;;;4990750;28;20026;-75
2024/03/12 10:44:05;;;;;;;5.15;3.25;;;;;;;;;;4990773;28;20038;-75
2024/03/12 10:46:30;;;;;;;8.13;4.97;;;;;;;;;;4991791;28;20035;-74
2024/03/12 10:48:56;;;;;;;6.55;4.00;;;;;;;;;;4993799;28;20065;-75
2024/03/12 10:51:21;;;;;;;5.03;3.30;;;;;;;;;;4992067;28;20030;-75
2024/03/12 10:53:51;;;;;;;6.10;4.18;;;;;;;;;;4991793;28;20022;-75
2024/03/12 10:56:17;;;;;;;7.13;4.07;;;;;;;;;;4993119;28;20041;-75
2024/03/12 10:58:48;;;;;;;5.70;4.00;;;;;;;;;;4996450;28;20034;-75
2024/03/12 11:01:20;;;;;;;7.15;3.83;;;;;;;;;;4991912;28;20030;-75
2024/03/12 11:03:47;;;;;;;6.18;3.95;;;;;;;;;;4991539;28;20042;-75
2024/03/12 11:06:15;;;;;;;8.75;4.40;;;;;;;;;;4992243;28;20026;-74
2024/03/12 11:08:43;;;;;;;5.63;3.90;;;;;;;;;;4997171;28;20022;-75
2024/03/12 11:11:09;;;;;;;7.50;4.32;;;;;;;;;;4991683;28;20057;-75
2024/03/12 11:13:34;;;;;;;5.85;3.90;;;;;;;;;;4990308;28;20034;-75
2024/03/12 11:16:07;;;;;;;9.52;4.57;;;;;;;;;;4991287;28;20092;-75
2024/03/12 11:18:36;;;;;;;7.03;4.57;;;;;;;;;;4995912;28;20038;-75
2024/03/12 11:21:03;;;;;;;7.25;3.95;;;;;;;;;;4990497;28;20069;-75
2024/03/12 11:23:29;;;;;;;7.13;4.05;;;;;;;;;;4994209;28;20069;-75
2024/03/12 11:25:56;;;;;;;6.55;4.47;;;;;;;;;;4989405;28;20068;-75
2024/03/12 11:28:27;;;;;;;8.40;4.75;;;;;;;;;;5115244;27;20387;-76
2024/03/12 11:30:55;;;;;;;8.45;4.03;;;;;;;;;;5088463;28;20059;-76
2024/03/12 11:33:41;;;;;;;6.13;4.38;;;;;;;;;;5097036;28;20063;-76
2024/03/12 11:36:09;;;;;;;6.25;4.55;;;;;;;;;;5092951;28;20029;-75
2024/03/12 11:38:35;;;;;;;5.57;3.88;;;;;;;;;;5096167;28;20093;-76
2024/03/12 11:41:03;;;;;;;7.32;4.38;;;;;;;;;;5090389;28;20036;-76
2024/03/12 11:43:41;;;;;;;5.63;3.80;;;;;;;;;;5093466;28;20516;-76
2024/03/12 11:46:10;;;;;;;5.95;3.53;;;;;;;;;;5085901;28;20127;-76
2024/03/12 11:48:36;;;;;;;5.95;3.38;;;;;;;;;;5095504;28;20028;-76
2024/03/12 11:51:04;;;;;;;5.82;3.50;;;;;;;;;;5087106;28;20519;-76
2024/03/12 11:53:36;;;;;;;7.38;4.03;;;;;;;;;;5094363;28;20492;-76
2024/03/12 11:56:05;;;;;;;;;;;;;;;;;;5087211;28;20588;-76
2024/03/12 11:58:32;;;;;;;4.88;3.38;;;;;;;;;;5095473;28;19912;-76
2024/03/12 12:00:57;;;;;;;5.45;3.03;;;;;;;;;;5087018;28;20104;-76
2024/03/12 12:03:23;;;;;;;5.60;3.35;;;;;;;;;;5086636;28;20520;-76
2024/03/12 12:05:50;;;;;;;5.25;3.15;;;;;;;;;;5086874;28;20442;-76
2024/03/12 12:08:15;;;;;;;4.50;2.65;;;;;;;;;;5097910;28;20036;-76
2024/03/12 12:10:42;;;;;;;4.07;2.85;;;;;;;;;;5086754;28;20034;-76
2024/03/12 12:13:16;;;;;;;6.55;3.10;;;;;;;;;;5086641;28;20060;-76
2024/03/12 12:15:55;;;;;;;4.25;2.95;;;;;;;;;;5088461;28;20085;-76
2024/03/12 12:18:21;;;;;;;4.47;3.20;;;;;;;;;;5094940;28;20075;-76
2024/03/12 12:20:46;;;;;;;6.25;3.15;;;;;;;;;;5093362;28;20060;-76
2024/03/12 12:23:13;;;;;;;5.03;3.33;;;;;;;;;;5092548;28;20451;-76
2024/03/12 12:25:38;;;;;;;5.75;4.18;;;;;;;;;;5082044;28;20040;-76
2024/03/12 12:28:07;;;;;;;4.55;3.00;;;;;;;;;;5094750;28;20038;-76
2024/03/12 12:30:34;;;;;;;7.95;3.70;;;;;;;;;;5086332;28;20097;-76
2024/03/12 12:32:59;;;;;;;11.05;7.43;;;;;;;;;;5086083;28;20035;-76
2024/03/12 12:35:25;;;;;;;8.43;5.35;;;;;;;;;;5086299;28;20404;-76
2024/03/12 12:37:51;;;;;;;9.45;7.47;;;;;;;;;;5091828;28;20476;-76
2024/03/12 12:40:20;;;;;;;6.28;4.78;;;;;;;;;;5076619;28;20024;-76
2024/03/12 12:42:50;;;;;;;8.02;6.47;;;;;;;;;;5072717;28;20039;-76
2024/03/12 12:45:15;;;;;;;8.95;6.20;;;;;;;;;;5072373;28;20557;-76
2024/03/12 12:47:45;;;;;;;8.73;6.25;;;;;;;;;;5077640;28;20044;-76
2024/03/12 12:50:11;;;;;;;10.35;6.93;;;;;;;;;;5073144;28;20036;-76
2024/03/12 12:52:38;;;;;;;8.93;6.63;;;;;;;;;;5073079;28;20028;-74
2024/03/12 12:55:09;;;;;;;8.77;6.70;;;;;;;;;;5072400;28;20056;-74
2024/03/12 12:57:40;;;;;;;8.02;6.65;;;;;;;;;;5075921;28;20497;-74
2024/03/12 13:00:16;;;;;;;9.20;6.65;;;;;;;;;;5083874;28;20103;-74
2024/03/12 13:02:41;;;;;;;9.43;7.28;;;;;;;;;;5074174;28;20037;-74
2024/03/12 13:05:07;;;;;;;8.07;6.93;;;;;;;;;;5072698;28;20033;-74
2024/03/12 13:07:33;;;;;;;8.02;6.55;;;;;;;;;;5081848;28;20393;-74
2024/03/12 13:10:14;;;;;;;7.47;5.97;;;;;;;;;;5074623;28;20039;-74
2024/03/12 13:12:40;;;;;;;6.80;5.67;;;;;;;;;;5072881;28;20056;-74
2024/03/12 13:15:05;;;;;;;6.93;4.95;;;;;;;;;;5074892;28;20051;-74
2024/03/12 13:17:30;;;;;;;7.68;5.03;;;;;;;;;;5078635;28;20040;-74
2024/03/12 13:19:56;;;;;;;6.32;4.85;;;;;;;;;;5074758;28;20056;-74
2024/03/12 13:22:22;;;;;;;8.52;5.30;;;;;;;;;;5070423;28;20428;-74
2024/03/12 13:24:47;;;;;;;7.32;4.68;;;;;;;;;;5074011;28;20036;-74
2024/03/12 13:27:13;;;;;;;7.38;4.75;;;;;;;;;;5073596;28;20035;-74
2024/03/12 13:29:42;;;;;;;18.40;8.02;;;;;;;;;;5074991;28;20031;-74
2024/03/12 13:32:07;;;;;;;5.55;4.10;;;;;;;;;;5074192;28;20027;-74
2024/03/12 13:34:32;;;;;;;6.70;3.78;;;;;;;;;;5071676;28;20447;-73
2024/03/12 13:36:58;;;;;;;8.82;6.03;;;;;;;;;;5073635;28;20028;-74
2024/03/12 13:39:24;;;;;;;29.42;17.40;;;;;;;;;;5074930;28;20044;-74
2024/03/12 13:41:49;;;;;;;7.00;4.00;;;;;;;;;;5071202;28;20033;-74
2024/03/12 13:44:16;;;;;;;5.97;3.92;;;;;;;;;;5070999;28;20035;-74
2024/03/12 13:46:41;;;;;;;6.85;3.78;;;;;;;;;;5079273;28;20079;-74
2024/03/12 13:49:11;;;;;;;5.55;3.60;;;;;;;;;;5077053;28;20059;-74
2024/03/12 13:51:36;;;;;;;5.15;3.05;;;;;;;;;;5070245;28;20124;-74
2024/03/12 13:54:02;;;;;;;5.82;3.47;;;;;;;;;;5074770;28;20120;-74
2024/03/12 13:56:27;;;;;;;5.40;3.47;;;;;;;;;;5071368;28;20033;-74
2024/03/12 13:58:52;;;;;;;5.45;3.65;;;;;;;;;;5077866;28;20565;-74
2024/03/12 14:01:17;;;;;;;4.95;3.47;;;;;;;;;;5075172;28;20036;-74
2024/03/12 14:03:42;;;;;;;14.20;9.55;;;;;;;;;;5070882;28;20040;-74
2024/03/12 14:06:12;;;;;;;6.10;3.70;;;;;;;;;;5070908;28;20170;-73
2024/03/12 14:08:37;;;;;;;14.18;8.60;;;;;;;;;;5075686;28;20032;-73
2024/03/12 14:11:03;;;;;;;10.90;7.07;;;;;;;;;;5070876;28;20432;-74
2024/03/12 14:13:29;;;;;;;5.82;4.05;;;;;;;;;;5074633;28;20056;-74
2024/03/12 14:15:54;;;;;;;10.05;6.80;;;;;;;;;;5072472;28;20031;-74
2024/03/12 14:18:21;;;;;;;4.90;3.70;;;;;;;;;;5084222;28;20040;-74
2024/03/12 14:20:46;;;;;;;5.75;3.88;;;;;;;;;;5079401;28;20060;-75
2024/03/12 14:23:12;;;;;;;5.85;3.92;;;;;;;;;;5078262;28;20105;-74
2024/03/12 14:25:37;;;;;;;8.23;3.67;;;;;;;;;;5076669;28;20500;-74
2024/03/12 14:28:05;;;;;;;5.68;3.58;;;;;;;;;;5077657;28;20403;-74
2024/03/12 14:30:31;;;;;;;5.72;3.42;;;;;;;;;;5074115;28;20036;-74
2024/03/12 14:32:56;;;;;;;5.63;3.78;;;;;;;;;;5071562;28;20512;-74
2024/03/12 14:35:21;;;;;;;5.78;3.78;;;;;;;;;;5079706;28;20032;-74
2024/03/12 14:37:47;;;;;;;5.68;3.97;;;;;;;;;;5075848;28;20090;-74